Time;durP1;ratioP1;P1;durP2;ratioP2;P2;SDS_P1;SDS_P2;PMS_P1;PMS_P2;Temp;Humidity;BMP_temperature;BMP_pressure;BME280_temperature;BME280_humidity;BME280_pressure;Samples;Min_cycle;Max_cycle;Signal;HPM_P1;HPM_P2
2022/07/23 00:01:23;;;;;;;7.53;6.72;;;;;;;;;;6206039;23;20071;-87
2022/07/23 00:03:50;;;;;;;7.78;6.97;;;;;;;;;;6231958;23;20459;-87
2022/07/23 00:06:16;;;;;;;7.50;6.80;;;;;;;;;;6230645;23;20484;-88
2022/07/23 00:08:42;;;;;;;9.80;7.15;;;;;;;;;;6158167;23;20095;-87
2022/07/23 00:11:07;;;;;;;9.98;7.00;;;;;;;;;;6160541;23;20091;-87
2022/07/23 00:13:33;;;;;;;10.57;7.57;;;;;;;;;;6182193;23;20020;-88
2022/07/23 00:16:02;;;;;;;10.50;7.25;;;;;;;;;;6181791;23;20099;-88
2022/07/23 00:18:28;;;;;;;9.90;7.38;;;;;;;;;;6186241;23;20036;-87
2022/07/23 00:20:53;;;;;;;9.05;7.32;;;;;;;;;;6158555;23;20040;-88
2022/07/23 00:23:19;;;;;;;7.40;6.70;;;;;;;;;;6160647;23;20411;-88
2022/07/23 00:25:46;;;;;;;8.57;7.53;;;;;;;;;;6185263;23;20020;-88
2022/07/23 00:28:12;;;;;;;8.32;7.53;;;;;;;;;;6159270;23;20066;-87
2022/07/23 00:30:38;;;;;;;8.35;6.90;;;;;;;;;;6153516;23;20029;-88
2022/07/23 00:33:07;;;;;;;9.05;6.57;;;;;;;;;;6155133;22;20078;-87
2022/07/23 00:35:36;;;;;;;9.93;6.90;;;;;;;;;;6175925;23;20019;-88
2022/07/23 00:38:04;;;;;;;9.77;6.80;;;;;;;;;;6188617;23;20020;-87
2022/07/23 00:40:32;;;;;;;7.60;6.90;;;;;;;;;;6154158;23;20020;-88
2022/07/23 00:43:00;;;;;;;7.88;7.07;;;;;;;;;;6156198;23;20044;-87
2022/07/23 00:45:26;;;;;;;9.43;7.07;;;;;;;;;;6192282;23;20451;-87
2022/07/23 00:47:52;;;;;;;9.65;7.28;;;;;;;;;;6204885;23;20072;-87
2022/07/23 00:50:18;;;;;;;8.13;7.32;;;;;;;;;;6184874;23;20320;-87
2022/07/23 00:52:44;;;;;;;7.85;7.10;;;;;;;;;;6178517;23;20040;-86
2022/07/23 00:55:11;;;;;;;7.65;6.75;;;;;;;;;;6168740;23;20071;-87
2022/07/23 00:57:38;;;;;;;8.43;6.90;;;;;;;;;;6203423;23;20092;-87
2022/07/23 01:00:06;;;;;;;8.93;7.22;;;;;;;;;;6177115;23;20019;-88
2022/07/23 01:02:32;;;;;;;8.13;7.28;;;;;;;;;;6176196;23;20030;-87
2022/07/23 01:04:58;;;;;;;9.80;7.05;;;;;;;;;;6182019;23;20019;-88
2022/07/23 01:07:24;;;;;;;7.90;7.20;;;;;;;;;;6165592;23;20016;-87
2022/07/23 01:09:51;;;;;;;9.35;7.50;;;;;;;;;;6205772;22;20016;-87
2022/07/23 01:12:17;;;;;;;8.23;7.10;;;;;;;;;;6181219;23;20091;-87
2022/07/23 01:14:43;;;;;;;8.30;7.10;;;;;;;;;;6185935;23;20019;-87
2022/07/23 01:17:09;;;;;;;9.40;7.72;;;;;;;;;;6213606;23;20020;-87
2022/07/23 01:19:35;;;;;;;9.38;7.35;;;;;;;;;;6212189;23;20012;-87
2022/07/23 01:22:03;;;;;;;8.38;7.38;;;;;;;;;;6160359;23;20016;-87
2022/07/23 01:24:29;;;;;;;7.80;6.80;;;;;;;;;;6160878;23;20035;-87
2022/07/23 01:26:55;;;;;;;8.02;7.05;;;;;;;;;;6157807;23;20084;-87
2022/07/23 01:29:22;;;;;;;8.38;7.43;;;;;;;;;;6177607;23;20434;-87
2022/07/23 01:31:47;;;;;;;9.70;7.53;;;;;;;;;;6160978;23;20117;-88
2022/07/23 01:34:14;;;;;;;11.80;8.18;;;;;;;;;;6185209;23;20013;-86
2022/07/23 01:36:40;;;;;;;9.50;7.65;;;;;;;;;;6153734;23;20104;-87
2022/07/23 01:39:07;;;;;;;8.70;7.57;;;;;;;;;;6208164;22;20024;-87
2022/07/23 01:41:33;;;;;;;10.65;7.95;;;;;;;;;;6209561;22;20049;-87
2022/07/23 01:43:59;;;;;;;9.25;8.30;;;;;;;;;;6192409;23;20273;-88
2022/07/23 01:46:25;;;;;;;8.02;7.22;;;;;;;;;;6167419;23;20046;-87
2022/07/23 01:48:52;;;;;;;10.05;7.18;;;;;;;;;;6161092;23;20020;-87
2022/07/23 01:51:21;;;;;;;8.52;7.65;;;;;;;;;;6161015;23;20020;-87
2022/07/23 01:53:47;;;;;;;8.68;7.50;;;;;;;;;;6158259;23;20052;-88
2022/07/23 01:56:14;;;;;;;8.95;8.15;;;;;;;;;;6161331;23;20036;-87
2022/07/23 01:58:40;;;;;;;11.68;7.90;;;;;;;;;;6193987;23;20027;-87
2022/07/23 02:01:06;;;;;;;8.30;7.45;;;;;;;;;;6180048;23;20021;-87
2022/07/23 02:03:32;;;;;;;10.70;7.90;;;;;;;;;;6164609;22;20027;-87
2022/07/23 02:05:57;;;;;;;9.02;8.18;;;;;;;;;;6180043;23;20021;-86
2022/07/23 02:08:25;;;;;;;12.45;8.10;;;;;;;;;;6183892;23;20021;-87
2022/07/23 02:10:53;;;;;;;9.80;7.82;;;;;;;;;;6183147;23;20020;-88
2022/07/23 02:13:18;;;;;;;10.20;8.43;;;;;;;;;;6206737;23;20012;-87
2022/07/23 02:15:46;;;;;;;9.93;8.18;;;;;;;;;;6196681;23;20074;-87
2022/07/23 02:18:12;;;;;;;8.80;7.90;;;;;;;;;;6215930;23;20040;-87
2022/07/23 02:20:38;;;;;;;9.20;7.97;;;;;;;;;;6215687;22;20027;-87
2022/07/23 02:23:04;;;;;;;10.68;7.93;;;;;;;;;;6191325;23;20229;-88
2022/07/23 02:25:30;;;;;;;8.40;7.60;;;;;;;;;;6190091;23;20019;-87
2022/07/23 02:27:57;;;;;;;9.98;8.18;;;;;;;;;;6216904;23;20035;-87
2022/07/23 02:30:23;;;;;;;9.93;8.43;;;;;;;;;;6189830;23;20016;-88
2022/07/23 02:32:49;;;;;;;10.02;7.90;;;;;;;;;;6186721;23;20401;-87
2022/07/23 02:35:16;;;;;;;10.07;8.10;;;;;;;;;;6187843;23;20028;-87
2022/07/23 02:37:42;;;;;;;10.30;7.65;;;;;;;;;;6187890;23;20026;-88
2022/07/23 02:40:08;;;;;;;9.13;8.15;;;;;;;;;;6215691;23;20020;-88
2022/07/23 02:42:35;;;;;;;11.35;8.52;;;;;;;;;;6184269;23;20036;-87
2022/07/23 02:45:02;;;;;;;11.07;8.63;;;;;;;;;;6190523;23;20119;-87
2022/07/23 02:47:28;;;;;;;9.75;8.57;;;;;;;;;;6190030;23;20091;-87
2022/07/23 02:49:55;;;;;;;9.80;8.55;;;;;;;;;;6186361;23;20078;-88
2022/07/23 02:52:23;;;;;;;10.82;8.38;;;;;;;;;;6190245;23;20066;-88
2022/07/23 02:54:49;;;;;;;11.07;8.30;;;;;;;;;;6235300;23;20064;-87
2022/07/23 02:57:15;;;;;;;11.95;8.90;;;;;;;;;;6213414;23;20074;-87
2022/07/23 02:59:40;;;;;;;9.13;8.15;;;;;;;;;;6208146;23;20095;-88
2022/07/23 03:02:07;;;;;;;11.10;8.38;;;;;;;;;;6214068;23;20379;-88
2022/07/23 03:04:33;;;;;;;10.40;8.68;;;;;;;;;;6184638;23;20016;-88
2022/07/23 03:06:59;;;;;;;11.10;8.77;;;;;;;;;;6214180;23;20024;-88
2022/07/23 03:09:25;;;;;;;12.20;9.00;;;;;;;;;;6171859;23;20020;-88
2022/07/23 03:11:52;;;;;;;9.73;8.73;;;;;;;;;;6205479;23;20424;-88
2022/07/23 03:14:18;;;;;;;11.52;10.38;;;;;;;;;;6189990;23;20287;-88
2022/07/23 03:16:45;;;;;;;9.55;8.60;;;;;;;;;;6186313;23;20058;-88
2022/07/23 03:19:11;;;;;;;10.25;8.65;;;;;;;;;;6189281;23;20365;-88
2022/07/23 03:21:40;;;;;;;10.25;9.07;;;;;;;;;;6186983;23;20096;-87
2022/07/23 03:24:07;;;;;;;10.25;8.93;;;;;;;;;;6155229;23;20040;-88
2022/07/23 03:26:32;;;;;;;9.50;8.20;;;;;;;;;;6184092;23;20072;-88
2022/07/23 03:28:58;;;;;;;11.73;8.73;;;;;;;;;;6184816;23;20025;-88
2022/07/23 03:31:24;;;;;;;9.32;7.97;;;;;;;;;;6169614;23;20012;-88
2022/07/23 03:33:50;;;;;;;10.80;9.70;;;;;;;;;;6165670;23;20390;-88
2022/07/23 03:36:16;;;;;;;9.20;8.07;;;;;;;;;;6160957;22;20046;-87
2022/07/23 03:38:43;;;;;;;10.18;8.60;;;;;;;;;;6140655;23;20328;-88
2022/07/23 03:41:09;;;;;;;9.48;8.10;;;;;;;;;;6148209;23;20019;-88
2022/07/23 03:43:35;;;;;;;10.95;8.57;;;;;;;;;;6184925;23;20016;-88
2022/07/23 03:46:00;;;;;;;10.90;8.82;;;;;;;;;;6216311;23;20104;-88
2022/07/23 03:48:26;;;;;;;10.13;9.00;;;;;;;;;;6163646;23;20450;-88
2022/07/23 03:50:55;;;;;;;9.48;7.95;;;;;;;;;;6139182;23;20053;-87
2022/07/23 03:53:20;;;;;;;10.63;8.90;;;;;;;;;;6156537;23;20004;-87
2022/07/23 03:55:46;;;;;;;9.88;8.20;;;;;;;;;;6154150;23;20051;-87
2022/07/23 03:58:15;;;;;;;11.15;8.70;;;;;;;;;;6166835;23;20087;-88
2022/07/23 04:00:41;;;;;;;9.95;7.82;;;;;;;;;;6214422;23;20012;-88
2022/07/23 04:03:07;;;;;;;12.02;8.80;;;;;;;;;;6188377;23;20108;-88
2022/07/23 04:05:33;;;;;;;9.18;8.23;;;;;;;;;;6207123;23;20016;-88
2022/07/23 04:08:00;;;;;;;9.98;8.40;;;;;;;;;;6189372;23;20024;-88
2022/07/23 04:10:26;;;;;;;9.40;8.52;;;;;;;;;;6214271;23;20100;-88
2022/07/23 04:12:52;;;;;;;10.63;9.18;;;;;;;;;;6217395;23;20024;-87
2022/07/23 04:15:19;;;;;;;12.40;8.63;;;;;;;;;;6191069;23;20040;-87
2022/07/23 04:17:48;;;;;;;13.07;9.30;;;;;;;;;;6189257;23;20435;-87
2022/07/23 04:20:14;;;;;;;9.90;8.63;;;;;;;;;;6188932;23;20020;-88
2022/07/23 04:22:39;;;;;;;13.07;9.13;;;;;;;;;;6216714;23;20071;-88
2022/07/23 04:25:06;;;;;;;10.40;8.45;;;;;;;;;;6208879;23;20046;-88
2022/07/23 04:27:33;;;;;;;9.48;8.15;;;;;;;;;;6192248;23;20043;-88
2022/07/23 04:29:59;;;;;;;10.98;8.57;;;;;;;;;;6216419;23;20024;-88
2022/07/23 04:32:24;;;;;;;9.93;8.80;;;;;;;;;;6236509;23;20066;-88
2022/07/23 04:34:53;;;;;;;12.15;8.35;;;;;;;;;;6212441;23;20023;-88
2022/07/23 04:37:19;;;;;;;9.55;7.70;;;;;;;;;;6186259;23;20016;-89
2022/07/23 04:39:45;;;;;;;13.50;8.13;;;;;;;;;;6217468;23;20028;-88
2022/07/23 04:42:10;;;;;;;12.55;8.07;;;;;;;;;;6164072;23;20055;-88
2022/07/23 04:44:36;;;;;;;10.48;7.47;;;;;;;;;;6185054;23;20044;-88
2022/07/23 04:47:02;;;;;;;9.18;8.20;;;;;;;;;;6191099;23;20024;-88
2022/07/23 04:49:29;;;;;;;13.52;8.80;;;;;;;;;;6190739;23;20016;-88
2022/07/23 04:51:55;;;;;;;9.43;8.38;;;;;;;;;;6189252;23;20387;-88
2022/07/23 04:54:23;;;;;;;11.70;8.98;;;;;;;;;;6217362;23;20023;-88
2022/07/23 04:56:49;;;;;;;10.32;8.20;;;;;;;;;;6192605;23;20028;-88
2022/07/23 04:59:15;;;;;;;9.77;8.30;;;;;;;;;;6192869;23;20346;-88
2022/07/23 05:01:43;;;;;;;10.25;8.07;;;;;;;;;;6190259;23;20020;-88
2022/07/23 05:04:09;;;;;;;13.38;8.82;;;;;;;;;;6217657;23;20016;-87
2022/07/23 05:06:35;;;;;;;9.25;8.35;;;;;;;;;;6191364;23;20047;-88
2022/07/23 05:09:00;;;;;;;11.57;8.23;;;;;;;;;;6216565;23;20016;-89
2022/07/23 05:11:27;;;;;;;12.40;9.48;;;;;;;;;;6190017;23;20048;-89
2022/07/23 05:13:53;;;;;;;11.85;9.05;;;;;;;;;;6189804;23;20044;-89
2022/07/23 05:16:19;;;;;;;10.20;9.00;;;;;;;;;;6191256;23;20013;-89
2022/07/23 05:18:46;;;;;;;12.88;8.77;;;;;;;;;;6218838;23;20016;-89
2022/07/23 05:21:13;;;;;;;11.35;9.18;;;;;;;;;;6187040;23;20092;-89
2022/07/23 05:23:39;;;;;;;13.30;8.48;;;;;;;;;;6186141;23;20530;-88
2022/07/23 05:26:05;;;;;;;9.40;8.32;;;;;;;;;;6160176;22;20028;-88
2022/07/23 05:28:30;;;;;;;18.80;10.55;;;;;;;;;;6186435;23;20020;-88
2022/07/23 05:30:56;;;;;;;19.77;9.80;;;;;;;;;;6238230;23;20025;-88
2022/07/23 05:33:22;;;;;;;14.02;10.27;;;;;;;;;;6189017;23;20016;-88
2022/07/23 05:35:48;;;;;;;27.92;12.02;;;;;;;;;;6189660;23;20046;-89
2022/07/23 05:38:13;;;;;;;27.83;11.27;;;;;;;;;;6191446;23;20020;-88
2022/07/23 05:40:39;;;;;;;41.28;13.35;;;;;;;;;;6215149;23;20023;-88
2022/07/23 05:43:05;;;;;;;21.50;10.60;;;;;;;;;;6213584;23;20458;-88
2022/07/23 05:45:30;;;;;;;13.38;10.00;;;;;;;;;;6190386;23;20020;-89
2022/07/23 05:47:56;;;;;;;24.73;10.95;;;;;;;;;;6191259;23;20024;-88
2022/07/23 05:50:22;;;;;;;11.45;9.63;;;;;;;;;;6210279;22;20020;-88
2022/07/23 05:52:48;;;;;;;14.48;9.30;;;;;;;;;;6200342;23;20036;-87
2022/07/23 05:55:14;;;;;;;16.08;10.57;;;;;;;;;;6216089;23;20000;-89
2022/07/23 05:57:41;;;;;;;16.77;9.13;;;;;;;;;;6212054;23;20016;-86
2022/07/23 06:00:08;;;;;;;13.70;9.82;;;;;;;;;;6213586;23;20027;-85
2022/07/23 06:02:34;;;;;;;14.60;9.90;;;;;;;;;;6188814;23;20431;-85
2022/07/23 06:05:01;;;;;;;11.38;9.38;;;;;;;;;;6214661;23;20024;-86
2022/07/23 06:07:27;;;;;;;11.98;8.70;;;;;;;;;;6213613;23;20098;-86
2022/07/23 06:09:52;;;;;;;10.85;8.65;;;;;;;;;;6214711;23;20047;-86
2022/07/23 06:12:18;;;;;;;13.20;8.23;;;;;;;;;;6214296;23;20020;-86
2022/07/23 06:14:44;;;;;;;15.20;8.93;;;;;;;;;;6191250;23;20062;-86
2022/07/23 06:17:10;;;;;;;14.20;8.65;;;;;;;;;;6189878;23;20016;-86
2022/07/23 06:19:38;;;;;;;11.60;8.13;;;;;;;;;;6215767;23;20070;-86
2022/07/23 06:22:04;;;;;;;12.55;8.45;;;;;;;;;;6191622;23;20083;-86
2022/07/23 06:24:30;;;;;;;14.13;8.45;;;;;;;;;;6214989;23;20067;-86
2022/07/23 06:26:57;;;;;;;12.35;8.02;;;;;;;;;;6190320;23;20497;-86
2022/07/23 06:29:22;;;;;;;12.23;7.70;;;;;;;;;;6215593;23;20066;-87
2022/07/23 06:31:48;;;;;;;10.43;7.57;;;;;;;;;;6213236;23;20020;-87
2022/07/23 06:34:14;;;;;;;9.52;6.85;;;;;;;;;;6206662;23;20044;-87
2022/07/23 06:36:39;;;;;;;10.15;7.38;;;;;;;;;;6212159;23;20016;-87
2022/07/23 06:39:05;;;;;;;14.48;6.85;;;;;;;;;;6217067;23;20074;-86
2022/07/23 06:41:31;;;;;;;9.85;7.55;;;;;;;;;;6190741;23;20022;-87
2022/07/23 06:43:57;;;;;;;9.82;6.30;;;;;;;;;;6241737;23;20056;-88
2022/07/23 06:46:22;;;;;;;11.30;7.45;;;;;;;;;;6180286;23;20013;-88
2022/07/23 06:48:48;;;;;;;10.13;7.57;;;;;;;;;;6186182;23;20127;-88
2022/07/23 06:51:15;;;;;;;7.72;6.32;;;;;;;;;;6171273;23;20020;-88
2022/07/23 06:53:41;;;;;;;10.38;6.70;;;;;;;;;;6208018;23;20035;-87
2022/07/23 06:56:08;;;;;;;11.45;6.93;;;;;;;;;;6178843;23;20659;-88
2022/07/23 06:58:34;;;;;;;9.70;6.78;;;;;;;;;;6210152;23;20027;-88
2022/07/23 07:01:00;;;;;;;13.38;7.05;;;;;;;;;;6185365;23;20028;-88
2022/07/23 07:03:26;;;;;;;12.18;7.47;;;;;;;;;;6212798;23;20412;-89
2022/07/23 07:05:53;;;;;;;10.40;6.97;;;;;;;;;;6211363;23;20214;-88
2022/07/23 07:08:18;;;;;;;11.05;6.03;;;;;;;;;;6188540;23;20034;-87
2022/07/23 07:10:44;;;;;;;12.05;7.10;;;;;;;;;;6214283;23;20339;-88
2022/07/23 07:13:10;;;;;;;7.72;6.43;;;;;;;;;;6211804;23;20042;-88
2022/07/23 07:15:36;;;;;;;12.27;7.30;;;;;;;;;;6188129;23;20077;-88
2022/07/23 07:18:01;;;;;;;11.13;7.20;;;;;;;;;;6212762;23;20020;-88
2022/07/23 07:20:27;;;;;;;9.85;6.72;;;;;;;;;;6186370;23;20016;-88
2022/07/23 07:22:53;;;;;;;7.70;5.72;;;;;;;;;;6188045;23;20024;-88
2022/07/23 07:25:19;;;;;;;10.75;5.80;;;;;;;;;;6187273;23;20106;-88
2022/07/23 07:27:44;;;;;;;10.80;6.32;;;;;;;;;;6213111;23;20012;-88
2022/07/23 07:30:11;;;;;;;7.20;5.78;;;;;;;;;;6211584;23;20078;-88
2022/07/23 07:32:37;;;;;;;6.82;6.10;;;;;;;;;;6186483;23;20020;-88
2022/07/23 07:35:04;;;;;;;8.82;6.03;;;;;;;;;;6212557;23;20039;-89
2022/07/23 07:37:30;;;;;;;11.82;5.97;;;;;;;;;;6187247;23;20019;-88
2022/07/23 07:39:55;;;;;;;10.20;5.82;;;;;;;;;;6212938;23;20044;-88
2022/07/23 07:42:21;;;;;;;9.30;5.68;;;;;;;;;;6212720;23;20047;-88
2022/07/23 07:44:47;;;;;;;8.38;6.35;;;;;;;;;;6213407;23;20454;-89
2022/07/23 07:47:15;;;;;;;14.68;7.25;;;;;;;;;;6189529;23;20095;-88
2022/07/23 07:49:40;;;;;;;10.50;6.35;;;;;;;;;;6188859;23;20016;-88
2022/07/23 07:52:06;;;;;;;12.18;7.07;;;;;;;;;;6188084;23;20484;-88
2022/07/23 07:54:32;;;;;;;8.65;6.55;;;;;;;;;;6212815;23;20462;-88
2022/07/23 07:56:58;;;;;;;11.40;6.80;;;;;;;;;;6214442;23;20024;-88
2022/07/23 07:59:23;;;;;;;11.45;7.47;;;;;;;;;;6188574;23;20385;-88
2022/07/23 08:01:49;;;;;;;9.73;7.03;;;;;;;;;;6213700;23;20454;-88
2022/07/23 08:04:15;;;;;;;9.48;7.18;;;;;;;;;;6215672;23;20024;-88
2022/07/23 08:06:41;;;;;;;11.02;7.90;;;;;;;;;;6186265;23;20332;-88
2022/07/23 08:09:06;;;;;;;9.25;6.78;;;;;;;;;;6211555;23;20362;-88
2022/07/23 08:11:32;;;;;;;12.48;7.38;;;;;;;;;;6186446;23;20536;-88
2022/07/23 08:13:58;;;;;;;10.95;6.53;;;;;;;;;;6212731;23;20074;-88
2022/07/23 08:16:23;;;;;;;9.73;7.47;;;;;;;;;;6213158;23;20078;-88
2022/07/23 08:18:49;;;;;;;11.27;7.25;;;;;;;;;;6216946;23;20266;-88
2022/07/23 08:21:15;;;;;;;9.68;6.00;;;;;;;;;;6187312;23;20012;-86
2022/07/23 08:23:41;;;;;;;7.60;5.70;;;;;;;;;;6187982;23;20454;-87
2022/07/23 08:26:06;;;;;;;10.27;6.10;;;;;;;;;;6187119;23;20095;-86
2022/07/23 08:28:32;;;;;;;7.97;6.13;;;;;;;;;;6212729;23;20016;-86
2022/07/23 08:30:59;;;;;;;10.43;6.68;;;;;;;;;;6219432;23;20020;-88
2022/07/23 08:33:26;;;;;;;8.60;5.63;;;;;;;;;;6193227;23;20009;-88
2022/07/23 08:35:52;;;;;;;8.05;5.93;;;;;;;;;;6191458;23;20017;-87
2022/07/23 08:38:20;;;;;;;7.30;5.40;;;;;;;;;;6187875;23;20016;-86
2022/07/23 08:40:48;;;;;;;6.78;5.70;;;;;;;;;;6189237;23;20075;-86
2022/07/23 08:43:23;;;;;;;5.80;5.28;;;;;;;;;;6186690;23;20083;-87
2022/07/23 08:45:51;;;;;;;6.80;5.33;;;;;;;;;;6236906;23;20027;-86
2022/07/23 08:48:19;;;;;;;11.13;5.50;;;;;;;;;;6214341;23;20019;-87
2022/07/23 08:50:47;;;;;;;8.43;5.47;;;;;;;;;;6215941;23;20036;-87
2022/07/23 08:53:14;;;;;;;6.50;4.90;;;;;;;;;;6192121;23;20020;-87
2022/07/23 08:55:45;;;;;;;9.38;5.65;;;;;;;;;;6191097;23;20024;-88
2022/07/23 08:58:12;;;;;;;9.50;5.60;;;;;;;;;;6192918;23;20383;-87
2022/07/23 09:00:37;;;;;;;8.52;5.32;;;;;;;;;;6218000;23;20016;-87
2022/07/23 09:03:03;;;;;;;8.32;5.60;;;;;;;;;;6188107;23;20551;-87
2022/07/23 09:05:35;;;;;;;7.57;4.88;;;;;;;;;;6171323;23;20319;-88
2022/07/23 09:08:09;;;;;;;10.32;5.88;;;;;;;;;;6215246;23;20026;-87
2022/07/23 09:10:55;;;;;;;5.78;4.93;;;;;;;;;;6198477;23;20020;-88
2022/07/23 09:13:32;;;;;;;6.47;4.72;;;;;;;;;;6218875;22;20027;-88
2022/07/23 09:16:01;;;;;;;10.48;5.15;;;;;;;;;;6218018;23;20397;-88
2022/07/23 09:18:32;;;;;;;10.85;5.55;;;;;;;;;;6175165;23;20149;-87
2022/07/23 09:21:14;;;;;;;6.55;4.80;;;;;;;;;;6167256;23;20021;-88
2022/07/23 09:23:44;;;;;;;7.78;5.57;;;;;;;;;;6187289;22;20015;-88
2022/07/23 09:26:19;;;;;;;9.15;5.25;;;;;;;;;;6184867;23;20039;-88
2022/07/23 09:28:57;;;;;;;5.88;5.18;;;;;;;;;;6209741;23;20400;-88
2022/07/23 09:31:24;;;;;;;10.05;5.30;;;;;;;;;;6208445;23;20370;-88
2022/07/23 09:33:50;;;;;;;10.68;5.25;;;;;;;;;;6182279;22;20016;-88
2022/07/23 09:36:16;;;;;;;6.68;5.13;;;;;;;;;;6178895;23;20020;-88
2022/07/23 09:38:51;;;;;;;8.15;4.88;;;;;;;;;;6187684;23;20019;-89
2022/07/23 09:41:17;;;;;;;6.05;5.25;;;;;;;;;;6212657;23;20027;-88
2022/07/23 09:43:43;;;;;;;6.15;4.75;;;;;;;;;;6189151;23;20032;-88
2022/07/23 09:46:24;;;;;;;6.50;5.10;;;;;;;;;;6213016;23;20036;-88
2022/07/23 09:48:53;;;;;;;8.20;5.10;;;;;;;;;;6182144;23;20017;-88
2022/07/23 09:51:24;;;;;;;5.82;5.18;;;;;;;;;;6182875;23;20282;-88
2022/07/23 09:53:50;;;;;;;7.18;4.80;;;;;;;;;;6188484;23;20020;-88
2022/07/23 09:56:16;;;;;;;7.97;5.50;;;;;;;;;;6213218;23;20023;-88
2022/07/23 09:58:47;;;;;;;8.63;5.57;;;;;;;;;;6187134;23;20090;-88
2022/07/23 10:01:14;;;;;;;8.98;6.43;;;;;;;;;;6215058;23;20489;-88
2022/07/23 10:03:41;;;;;;;9.15;6.75;;;;;;;;;;6189674;23;20028;-88
2022/07/23 10:06:08;;;;;;;8.10;6.28;;;;;;;;;;6188059;23;20057;-87
2022/07/23 10:08:35;;;;;;;9.55;6.85;;;;;;;;;;6187339;23;20095;-86
2022/07/23 10:11:01;;;;;;;10.50;7.32;;;;;;;;;;6188138;23;20454;-86
2022/07/23 10:16:13;;;;;;;9.02;6.68;;;;;;;;;;6192747;23;20493;-86
2022/07/23 10:18:38;;;;;;;11.52;6.68;;;;;;;;;;6198168;23;20050;-86
2022/07/23 10:21:06;;;;;;;7.72;6.85;;;;;;;;;;6187717;22;20016;-86
2022/07/23 10:23:44;;;;;;;7.88;6.97;;;;;;;;;;6188198;23;20213;-87
2022/07/23 10:26:12;;;;;;;9.57;6.47;;;;;;;;;;6214702;23;20047;-86
2022/07/23 10:28:50;;;;;;;12.20;6.28;;;;;;;;;;6212817;23;20023;-86
2022/07/23 10:31:32;;;;;;;8.63;6.80;;;;;;;;;;6213947;23;20103;-88
2022/07/23 10:34:20;;;;;;;11.50;6.43;;;;;;;;;;6237752;23;20012;-87
2022/07/23 10:37:00;;;;;;;7.53;5.18;;;;;;;;;;6212670;22;20079;-87
2022/07/23 10:39:31;;;;;;;10.18;6.50;;;;;;;;;;6187445;23;20074;-85
2022/07/23 10:42:10;;;;;;;7.47;5.82;;;;;;;;;;6188215;23;20047;-87
2022/07/23 10:44:42;;;;;;;8.57;5.57;;;;;;;;;;6214192;23;20024;-87
2022/07/23 10:47:23;;;;;;;10.10;5.97;;;;;;;;;;6189390;23;20024;-87
2022/07/23 10:49:49;;;;;;;9.88;5.93;;;;;;;;;;6190090;23;20325;-87
2022/07/23 10:52:15;;;;;;;8.98;5.22;;;;;;;;;;6187983;23;20012;-87
2022/07/23 10:55:02;;;;;;;9.45;5.40;;;;;;;;;;6215402;23;20043;-87
2022/07/23 10:57:28;;;;;;;9.60;5.28;;;;;;;;;;6239137;23;20091;-87
2022/07/23 11:00:08;;;;;;;9.00;5.53;;;;;;;;;;6189058;23;20040;-87
2022/07/23 11:02:35;;;;;;;7.20;4.72;;;;;;;;;;6213352;23;20461;-87
2022/07/23 11:05:09;;;;;;;9.30;4.88;;;;;;;;;;6212558;23;20468;-88
2022/07/23 11:07:36;;;;;;;7.60;4.93;;;;;;;;;;6187514;23;20363;-87
2022/07/23 11:10:03;;;;;;;6.45;4.10;;;;;;;;;;6180881;23;20072;-87
2022/07/23 11:12:28;;;;;;;8.18;4.10;;;;;;;;;;6187980;23;20012;-87
2022/07/23 11:15:11;;;;;;;6.38;4.35;;;;;;;;;;6213215;22;20042;-86
2022/07/23 11:17:38;;;;;;;5.85;4.53;;;;;;;;;;6213237;23;20022;-87
2022/07/23 11:20:09;;;;;;;6.68;5.00;;;;;;;;;;6205088;23;20122;-88
2022/07/23 11:22:59;;;;;;;6.28;4.60;;;;;;;;;;6213101;23;20020;-87
2022/07/23 11:25:24;;;;;;;5.13;4.00;;;;;;;;;;6176640;23;20357;-87
2022/07/23 11:27:51;;;;;;;4.93;3.80;;;;;;;;;;6213295;23;20044;-87
2022/07/23 11:30:26;;;;;;;7.55;3.90;;;;;;;;;;6210999;23;20338;-88
2022/07/23 11:32:53;;;;;;;3.38;3.08;;;;;;;;;;6212216;23;20502;-87
2022/07/23 11:35:25;;;;;;;4.40;4.00;;;;;;;;;;6156158;23;20488;-88
2022/07/23 11:37:58;;;;;;;5.38;3.38;;;;;;;;;;6181819;22;20017;-89
2022/07/23 11:40:25;;;;;;;4.55;3.30;;;;;;;;;;6187187;23;20023;-86
2022/07/23 11:42:55;;;;;;;7.18;3.60;;;;;;;;;;6183299;23;20511;-88
2022/07/23 11:45:21;;;;;;;5.72;3.58;;;;;;;;;;6213763;23;20031;-88
2022/07/23 11:47:47;;;;;;;5.50;3.00;;;;;;;;;;6186747;23;20031;-88
2022/07/23 11:50:13;;;;;;;4.68;3.20;;;;;;;;;;6210421;23;20024;-88
2022/07/23 11:52:39;;;;;;;5.47;3.35;;;;;;;;;;6204917;22;20016;-87
2022/07/23 11:55:07;;;;;;;3.63;2.95;;;;;;;;;;6187442;23;20024;-88
2022/07/23 11:57:36;;;;;;;4.25;2.88;;;;;;;;;;6185977;23;20070;-88
2022/07/23 12:00:13;;;;;;;4.78;2.83;;;;;;;;;;6185861;23;20040;-87
2022/07/23 12:02:43;;;;;;;5.40;3.00;;;;;;;;;;6185261;23;20012;-88
2022/07/23 12:05:13;;;;;;;3.05;2.38;;;;;;;;;;6184997;23;20031;-88
2022/07/23 12:07:43;;;;;;;6.10;3.20;;;;;;;;;;6186269;23;20016;-88
2022/07/23 12:10:14;;;;;;;5.25;3.05;;;;;;;;;;6210406;23;20026;-88
2022/07/23 12:12:41;;;;;;;3.15;2.85;;;;;;;;;;6181047;23;20317;-88
2022/07/23 12:15:08;;;;;;;5.18;3.00;;;;;;;;;;6186310;22;20024;-88
2022/07/23 12:17:36;;;;;;;3.70;3.30;;;;;;;;;;6186629;23;20012;-88
2022/07/23 12:20:05;;;;;;;9.52;3.75;;;;;;;;;;6211518;23;20517;-87
2022/07/23 12:22:46;;;;;;;4.13;3.17;;;;;;;;;;6187211;23;20040;-87
2022/07/23 12:25:15;;;;;;;5.50;3.50;;;;;;;;;;6189238;23;20063;-87
2022/07/23 12:27:41;;;;;;;4.72;3.50;;;;;;;;;;6212108;23;20016;-88
2022/07/23 12:30:42;;;;;;;4.70;3.78;;;;;;;;;;6213790;22;20068;-88
2022/07/23 12:33:10;;;;;;;5.47;3.22;;;;;;;;;;6183544;23;20107;-89
2022/07/23 12:35:42;;;;;;;5.47;3.42;;;;;;;;;;6189768;23;20020;-88
2022/07/23 12:38:13;;;;;;;4.03;2.97;;;;;;;;;;6189270;23;20024;-86
2022/07/23 12:40:50;;;;;;;4.38;3.70;;;;;;;;;;6214886;23;20395;-86
2022/07/23 12:43:37;;;;;;;6.05;2.95;;;;;;;;;;6190857;23;20016;-87
2022/07/23 12:46:09;;;;;;;6.40;3.55;;;;;;;;;;6240839;23;20042;-87
2022/07/23 12:48:40;;;;;;;5.95;3.65;;;;;;;;;;6218004;22;20020;-87
2022/07/23 12:51:18;;;;;;;4.32;3.42;;;;;;;;;;6191395;23;20099;-87
2022/07/23 12:53:49;;;;;;;3.67;3.20;;;;;;;;;;6217219;23;20020;-88
2022/07/23 12:56:17;;;;;;;6.55;4.10;;;;;;;;;;6213860;23;20512;-87
2022/07/23 12:58:48;;;;;;;5.07;3.70;;;;;;;;;;6160430;23;20447;-87
2022/07/23 13:01:20;;;;;;;6.65;3.47;;;;;;;;;;6184241;23;20024;-87
2022/07/23 13:03:56;;;;;;;5.07;3.88;;;;;;;;;;6184057;23;20359;-86
2022/07/23 13:06:22;;;;;;;4.40;3.92;;;;;;;;;;6159195;23;20100;-87
2022/07/23 13:08:47;;;;;;;4.95;3.50;;;;;;;;;;6158411;23;20024;-87
2022/07/23 13:11:13;;;;;;;6.18;4.30;;;;;;;;;;6171628;23;20029;-87
2022/07/23 13:13:39;;;;;;;4.10;3.80;;;;;;;;;;6205605;23;20015;-86
2022/07/23 13:16:05;;;;;;;4.18;3.72;;;;;;;;;;6158128;23;20051;-87
2022/07/23 13:18:31;;;;;;;5.22;3.75;;;;;;;;;;6157591;23;20021;-87
2022/07/23 13:20:57;;;;;;;4.32;3.72;;;;;;;;;;6193191;23;20020;-86
2022/07/23 13:23:23;;;;;;;4.57;3.25;;;;;;;;;;6199416;23;20484;-87
2022/07/23 13:25:49;;;;;;;5.72;4.07;;;;;;;;;;6186025;23;20031;-87
2022/07/23 13:28:16;;;;;;;4.07;3.67;;;;;;;;;;6159489;23;20033;-87
2022/07/23 13:30:43;;;;;;;5.40;3.55;;;;;;;;;;6181972;23;20017;-86
2022/07/23 13:33:08;;;;;;;4.15;3.80;;;;;;;;;;6208927;23;20012;-88
2022/07/23 13:35:35;;;;;;;6.18;3.90;;;;;;;;;;6187537;23;20044;-87
2022/07/23 13:38:03;;;;;;;6.93;3.65;;;;;;;;;;6188500;23;20020;-87
2022/07/23 13:40:28;;;;;;;4.32;3.65;;;;;;;;;;6211812;23;20027;-86
2022/07/23 13:42:54;;;;;;;3.35;3.10;;;;;;;;;;6211418;23;20023;-87
2022/07/23 13:45:20;;;;;;;4.05;3.50;;;;;;;;;;6214727;23;20024;-86
2022/07/23 13:47:46;;;;;;;6.03;4.32;;;;;;;;;;6186827;23;20016;-87
2022/07/23 13:50:12;;;;;;;4.07;3.78;;;;;;;;;;6188334;23;20016;-87
2022/07/23 13:52:37;;;;;;;4.13;3.67;;;;;;;;;;6191283;23;20425;-86
2022/07/23 13:55:05;;;;;;;4.78;3.70;;;;;;;;;;6189973;23;20016;-86
2022/07/23 13:57:32;;;;;;;5.28;3.58;;;;;;;;;;6189187;23;20012;-87
2022/07/23 13:59:58;;;;;;;5.35;3.58;;;;;;;;;;6188380;23;20470;-87
2022/07/23 14:02:25;;;;;;;3.90;3.50;;;;;;;;;;6190338;23;20035;-88
2022/07/23 14:04:51;;;;;;;4.32;3.22;;;;;;;;;;6215088;23;20016;-86
2022/07/23 14:07:17;;;;;;;4.35;3.42;;;;;;;;;;6188067;23;20391;-86
2022/07/23 14:09:44;;;;;;;3.70;3.20;;;;;;;;;;6159837;23;20020;-86
2022/07/23 14:12:10;;;;;;;4.20;3.40;;;;;;;;;;6184169;23;20016;-87
2022/07/23 14:14:36;;;;;;;3.75;3.33;;;;;;;;;;6164200;22;20016;-87
2022/07/23 14:17:01;;;;;;;4.95;4.03;;;;;;;;;;6197263;23;20104;-87
2022/07/23 14:19:27;;;;;;;3.92;3.60;;;;;;;;;;6188579;23;20020;-87
2022/07/23 14:21:53;;;;;;;6.35;4.20;;;;;;;;;;6208414;23;20074;-87
2022/07/23 14:24:19;;;;;;;5.03;3.92;;;;;;;;;;6186575;23;20469;-87
2022/07/23 14:26:46;;;;;;;5.80;4.05;;;;;;;;;;6185622;23;20020;-87
2022/07/23 14:29:11;;;;;;;4.32;3.92;;;;;;;;;;6167339;23;20047;-86
2022/07/23 14:31:37;;;;;;;7.18;3.90;;;;;;;;;;6210799;23;20016;-86
2022/07/23 14:34:03;;;;;;;5.05;3.88;;;;;;;;;;6166000;23;20025;-86
2022/07/23 14:36:29;;;;;;;4.05;3.47;;;;;;;;;;6164852;23;20058;-86
2022/07/23 14:38:54;;;;;;;3.80;3.53;;;;;;;;;;6185594;23;20017;-86
2022/07/23 14:41:20;;;;;;;4.05;3.60;;;;;;;;;;6158486;23;20012;-86
2022/07/23 14:43:46;;;;;;;3.97;3.58;;;;;;;;;;6189769;23;20028;-86